sensor_id;sensor_type;location;lat;lon;timestamp;pressure;altitude;pressure_sealevel;temperature;humidity
64668;BME280;51077;42.716;23.344;2024-03-17T00:01:18;95619.38;;;12.56;47.83
64668;BME280;51077;42.716;23.344;2024-03-17T00:03:43;95617.88;;;12.55;47.82
64668;BME280;51077;42.716;23.344;2024-03-17T00:06:09;95618.38;;;12.53;47.49
64668;BME280;51077;42.716;23.344;2024-03-17T00:08:35;95626.41;;;12.51;47.62
64668;BME280;51077;42.716;23.344;2024-03-17T00:11:00;95616.69;;;12.50;47.79
64668;BME280;51077;42.716;23.344;2024-03-17T00:13:26;95613.97;;;12.45;47.90
64668;BME280;51077;42.716;23.344;2024-03-17T00:15:51;95613.00;;;12.42;48.00
64668;BME280;51077;42.716;23.344;2024-03-17T00:18:17;95620.50;;;12.42;47.84
64668;BME280;51077;42.716;23.344;2024-03-17T00:20:43;95618.50;;;12.42;47.74
64668;BME280;51077;42.716;23.344;2024-03-17T00:23:09;95610.53;;;12.39;47.93
64668;BME280;51077;42.716;23.344;2024-03-17T00:25:37;95617.06;;;12.36;48.03
64668;BME280;51077;42.716;23.344;2024-03-17T00:28:03;95610.59;;;12.33;47.95
64668;BME280;51077;42.716;23.344;2024-03-17T00:30:28;95614.59;;;12.32;48.03
64668;BME280;51077;42.716;23.344;2024-03-17T00:32:54;95610.13;;;12.29;47.94
64668;BME280;51077;42.716;23.344;2024-03-17T00:35:19;95606.38;;;12.26;48.01
64668;BME280;51077;42.716;23.344;2024-03-17T00:37:48;95608.63;;;12.28;48.20
64668;BME280;51077;42.716;23.344;2024-03-17T00:40:14;95602.88;;;12.26;47.81
64668;BME280;51077;42.716;23.344;2024-03-17T00:42:39;95607.19;;;12.21;48.10
64668;BME280;51077;42.716;23.344;2024-03-17T00:45:06;95612.47;;;12.19;47.90
64668;BME280;51077;42.716;23.344;2024-03-17T00:47:32;95611.47;;;12.17;48.04
64668;BME280;51077;42.716;23.344;2024-03-17T00:49:58;95612.50;;;12.14;48.15
64668;BME280;51077;42.716;23.344;2024-03-17T00:52:23;95611.53;;;12.11;48.20
64668;BME280;51077;42.716;23.344;2024-03-17T00:54:48;95614.28;;;12.11;48.04
64668;BME280;51077;42.716;23.344;2024-03-17T00:57:14;95611.81;;;12.07;48.16
64668;BME280;51077;42.716;23.344;2024-03-17T00:59:41;95615.59;;;12.04;48.24
64668;BME280;51077;42.716;23.344;2024-03-17T01:02:08;95613.34;;;12.03;48.12
64668;BME280;51077;42.716;23.344;2024-03-17T01:04:33;95611.88;;;12.02;48.39
64668;BME280;51077;42.716;23.344;2024-03-17T01:06:59;95616.91;;;11.98;48.25
64668;BME280;51077;42.716;23.344;2024-03-17T01:09:25;95626.38;;;11.97;48.31
64668;BME280;51077;42.716;23.344;2024-03-17T01:11:50;95613.16;;;11.95;48.37
64668;BME280;51077;42.716;23.344;2024-03-17T01:14:15;95615.44;;;11.91;48.48
64668;BME280;51077;42.716;23.344;2024-03-17T01:16:41;95616.44;;;11.88;48.57
64668;BME280;51077;42.716;23.344;2024-03-17T01:19:06;95615.72;;;11.88;48.33
64668;BME280;51077;42.716;23.344;2024-03-17T01:21:32;95621.00;;;11.86;48.42
64668;BME280;51077;42.716;23.344;2024-03-17T01:23:57;95617.00;;;11.81;48.58
64668;BME280;51077;42.716;23.344;2024-03-17T01:26:22;95618.75;;;11.78;48.47
64668;BME280;51077;42.716;23.344;2024-03-17T01:28:49;95617.50;;;11.79;48.66
64668;BME280;51077;42.716;23.344;2024-03-17T01:31:14;95619.53;;;11.73;48.73
64668;BME280;51077;42.716;23.344;2024-03-17T01:33:40;95617.81;;;11.70;48.90
64668;BME280;51077;42.716;23.344;2024-03-17T01:36:06;95612.81;;;11.69;48.81
64668;BME280;51077;42.716;23.344;2024-03-17T01:38:31;95613.84;;;11.66;48.59
64668;BME280;51077;42.716;23.344;2024-03-17T01:40:58;95613.38;;;11.62;48.98
64668;BME280;51077;42.716;23.344;2024-03-17T01:43:23;95610.38;;;11.60;49.06
64668;BME280;51077;42.716;23.344;2024-03-17T01:45:49;95615.16;;;11.59;48.92
64668;BME280;51077;42.716;23.344;2024-03-17T01:48:15;95614.69;;;11.55;48.94
64668;BME280;51077;42.716;23.344;2024-03-17T01:50:42;95614.19;;;11.51;48.95
64668;BME280;51077;42.716;23.344;2024-03-17T01:53:09;95614.72;;;11.49;48.90
64668;BME280;51077;42.716;23.344;2024-03-17T01:55:37;95619.97;;;11.47;49.02
64668;BME280;51077;42.716;23.344;2024-03-17T01:58:04;95619.75;;;11.45;49.17
64668;BME280;51077;42.716;23.344;2024-03-17T02:00:33;95611.00;;;11.41;49.28
64668;BME280;51077;42.716;23.344;2024-03-17T02:03:04;95610.00;;;11.39;49.21
64668;BME280;51077;42.716;23.344;2024-03-17T02:05:31;95613.78;;;11.36;49.21
64668;BME280;51077;42.716;23.344;2024-03-17T02:07:56;95610.81;;;11.33;49.35
64668;BME280;51077;42.716;23.344;2024-03-17T02:10:21;95615.31;;;11.31;49.37
64668;BME280;51077;42.716;23.344;2024-03-17T02:12:48;95617.56;;;11.27;49.68
64668;BME280;51077;42.716;23.344;2024-03-17T02:15:13;95616.59;;;11.24;49.59
64668;BME280;51077;42.716;23.344;2024-03-17T02:17:39;95622.09;;;11.24;49.51
64668;BME280;51077;42.716;23.344;2024-03-17T02:20:05;95616.34;;;11.22;49.59
64668;BME280;51077;42.716;23.344;2024-03-17T02:22:36;95618.88;;;11.20;49.53
64668;BME280;51077;42.716;23.344;2024-03-17T02:25:01;95615.88;;;11.18;49.69
64668;BME280;51077;42.716;23.344;2024-03-17T02:27:27;95621.13;;;11.16;49.51
64668;BME280;51077;42.716;23.344;2024-03-17T02:29:53;95612.88;;;11.16;49.79
64668;BME280;51077;42.716;23.344;2024-03-17T02:32:18;95606.16;;;11.12;49.59
64668;BME280;51077;42.716;23.344;2024-03-17T02:34:47;95608.66;;;11.10;49.76
64668;BME280;51077;42.716;23.344;2024-03-17T02:37:12;95609.91;;;11.08;49.67
64668;BME280;51077;42.716;23.344;2024-03-17T02:39:38;95608.44;;;11.07;49.86
64668;BME280;51077;42.716;23.344;2024-03-17T02:42:08;95610.44;;;11.07;50.00
64668;BME280;51077;42.716;23.344;2024-03-17T02:44:35;95606.69;;;11.04;49.89
64668;BME280;51077;42.716;23.344;2024-03-17T02:47:01;95605.22;;;11.03;49.88
64668;BME280;51077;42.716;23.344;2024-03-17T02:49:28;95603.72;;;11.02;49.75
64668;BME280;51077;42.716;23.344;2024-03-17T02:52:00;95603.97;;;10.99;49.77
64668;BME280;51077;42.716;23.344;2024-03-17T02:54:26;95607.72;;;11.01;49.65
64668;BME280;51077;42.716;23.344;2024-03-17T02:56:51;95605.25;;;10.98;49.94
64668;BME280;51077;42.716;23.344;2024-03-17T02:59:16;95602.50;;;10.98;49.91
64668;BME280;51077;42.716;23.344;2024-03-17T03:01:42;95599.50;;;10.96;49.95
64668;BME280;51077;42.716;23.344;2024-03-17T03:04:08;95602.75;;;10.94;49.74
64668;BME280;51077;42.716;23.344;2024-03-17T03:06:34;95601.75;;;10.92;49.94
64668;BME280;51077;42.716;23.344;2024-03-17T03:08:59;95595.50;;;10.91;49.92
64668;BME280;51077;42.716;23.344;2024-03-17T03:11:25;95601.00;;;10.91;49.94
64668;BME280;51077;42.716;23.344;2024-03-17T03:13:51;95617.25;;;10.89;49.77
64668;BME280;51077;42.716;23.344;2024-03-17T03:16:16;95603.78;;;10.86;49.99
64668;BME280;51077;42.716;23.344;2024-03-17T03:18:44;95606.53;;;10.86;49.92
64668;BME280;51077;42.716;23.344;2024-03-17T03:21:10;95606.00;;;10.87;49.87
64668;BME280;51077;42.716;23.344;2024-03-17T03:23:36;95607.78;;;10.85;49.99
64668;BME280;51077;42.716;23.344;2024-03-17T03:26:02;95604.03;;;10.82;49.90
64668;BME280;51077;42.716;23.344;2024-03-17T03:28:30;95603.81;;;10.80;49.96
64668;BME280;51077;42.716;23.344;2024-03-17T03:30:55;95603.56;;;10.78;50.12
64668;BME280;51077;42.716;23.344;2024-03-17T03:33:21;95605.56;;;10.77;49.92
64668;BME280;51077;42.716;23.344;2024-03-17T03:35:47;95608.81;;;10.76;50.03
64668;BME280;51077;42.716;23.344;2024-03-17T03:38:13;95606.06;;;10.76;50.00
64668;BME280;51077;42.716;23.344;2024-03-17T03:40:42;95605.06;;;10.73;50.11
64668;BME280;51077;42.716;23.344;2024-03-17T03:43:09;95613.81;;;10.72;50.06
64668;BME280;51077;42.716;23.344;2024-03-17T03:45:34;95609.34;;;10.69;50.18
64668;BME280;51077;42.716;23.344;2024-03-17T03:48:00;95614.81;;;10.69;50.04
64668;BME280;51077;42.716;23.344;2024-03-17T03:50:25;95617.81;;;10.65;49.99
64668;BME280;51077;42.716;23.344;2024-03-17T03:52:51;95622.56;;;10.65;50.10
64668;BME280;51077;42.716;23.344;2024-03-17T03:55:16;95632.81;;;10.64;50.19
64668;BME280;51077;42.716;23.344;2024-03-17T03:57:43;95618.81;;;10.62;49.95
64668;BME280;51077;42.716;23.344;2024-03-17T04:00:16;95626.81;;;10.60;50.16
64668;BME280;51077;42.716;23.344;2024-03-17T04:02:48;95631.31;;;10.57;50.00
64668;BME280;51077;42.716;23.344;2024-03-17T04:05:14;95626.59;;;10.58;49.86
64668;BME280;51077;42.716;23.344;2024-03-17T04:07:40;95628.56;;;10.57;50.08
64668;BME280;51077;42.716;23.344;2024-03-17T04:10:08;95631.59;;;10.54;50.25
64668;BME280;51077;42.716;23.344;2024-03-17T04:12:34;95636.59;;;10.50;50.20
64668;BME280;51077;42.716;23.344;2024-03-17T04:15:00;95634.31;;;10.48;50.20
64668;BME280;51077;42.716;23.344;2024-03-17T04:17:26;95639.34;;;10.50;50.10
64668;BME280;51077;42.716;23.344;2024-03-17T04:19:55;95641.81;;;10.48;50.20
64668;BME280;51077;42.716;23.344;2024-03-17T04:22:21;95653.03;;;10.44;50.22
64668;BME280;51077;42.716;23.344;2024-03-17T04:24:50;95652.81;;;10.42;50.42
64668;BME280;51077;42.716;23.344;2024-03-17T04:27:22;95649.56;;;10.38;50.26
64668;BME280;51077;42.716;23.344;2024-03-17T04:29:49;95648.81;;;10.38;50.37
64668;BME280;51077;42.716;23.344;2024-03-17T04:32:15;95660.22;;;10.70;60.59
64668;BME280;51077;42.716;23.344;2024-03-17T04:34:40;95663.56;;;11.21;68.87
64668;BME280;51077;42.716;23.344;2024-03-17T04:37:09;95661.84;;;11.65;69.84
64668;BME280;51077;42.716;23.344;2024-03-17T04:39:36;95666.72;;;11.89;67.82
64668;BME280;51077;42.716;23.344;2024-03-17T04:42:03;95665.47;;;11.90;67.81
64668;BME280;51077;42.716;23.344;2024-03-17T04:44:29;95671.00;;;11.78;66.95
64668;BME280;51077;42.716;23.344;2024-03-17T04:46:54;95670.84;;;11.65;66.36
64668;BME280;51077;42.716;23.344;2024-03-17T04:49:20;95674.16;;;11.52;65.50
64668;BME280;51077;42.716;23.344;2024-03-17T04:51:45;95685.22;;;11.41;65.21
64668;BME280;51077;42.716;23.344;2024-03-17T04:54:11;95675.00;;;11.30;64.76
64668;BME280;51077;42.716;23.344;2024-03-17T04:56:37;95688.53;;;11.23;64.41
64668;BME280;51077;42.716;23.344;2024-03-17T04:59:02;95681.78;;;11.18;63.58
64668;BME280;51077;42.716;23.344;2024-03-17T05:01:27;95691.56;;;11.14;63.40
64668;BME280;51077;42.716;23.344;2024-03-17T05:03:56;95692.06;;;11.12;62.89
64668;BME280;51077;42.716;23.344;2024-03-17T05:06:21;95698.09;;;11.11;62.37
64668;BME280;51077;42.716;23.344;2024-03-17T05:08:47;95701.31;;;11.09;62.11
64668;BME280;51077;42.716;23.344;2024-03-17T05:11:12;95707.56;;;11.10;61.52
64668;BME280;51077;42.716;23.344;2024-03-17T05:13:39;95710.31;;;11.10;61.26
64668;BME280;51077;42.716;23.344;2024-03-17T05:16:05;95703.81;;;11.13;60.69
64668;BME280;51077;42.716;23.344;2024-03-17T05:18:30;95712.53;;;11.17;60.14
64668;BME280;51077;42.716;23.344;2024-03-17T05:23:30;95704.53;;;11.24;59.30
64668;BME280;51077;42.716;23.344;2024-03-17T05:25:56;95710.25;;;11.32;59.18
64668;BME280;51077;42.716;23.344;2024-03-17T05:28:24;95712.22;;;11.37;58.98
64668;BME280;51077;42.716;23.344;2024-03-17T05:30:49;95717.69;;;11.43;58.27
64668;BME280;51077;42.716;23.344;2024-03-17T05:33:19;95723.41;;;11.50;57.88
64668;BME280;51077;42.716;23.344;2024-03-17T05:35:54;95721.38;;;11.56;57.59
64668;BME280;51077;42.716;23.344;2024-03-17T05:38:24;95720.56;;;11.67;57.27
64668;BME280;51077;42.716;23.344;2024-03-17T05:41:00;95722.28;;;11.76;56.58
64668;BME280;51077;42.716;23.344;2024-03-17T05:43:30;95719.25;;;11.85;56.22
64668;BME280;51077;42.716;23.344;2024-03-17T05:45:58;95713.44;;;11.94;55.82
64668;BME280;51077;42.716;23.344;2024-03-17T05:48:24;95717.91;;;12.03;55.33
64668;BME280;51077;42.716;23.344;2024-03-17T05:50:50;95713.34;;;12.11;55.23
64668;BME280;51077;42.716;23.344;2024-03-17T05:53:20;95713.75;;;12.21;54.79
64668;BME280;51077;42.716;23.344;2024-03-17T05:55:45;95715.19;;;12.33;54.46
64668;BME280;51077;42.716;23.344;2024-03-17T05:58:11;95716.34;;;12.43;53.96
64668;BME280;51077;42.716;23.344;2024-03-17T06:00:37;95725.00;;;12.53;53.59
64668;BME280;51077;42.716;23.344;2024-03-17T06:03:03;95728.63;;;12.67;53.22
64668;BME280;51077;42.716;23.344;2024-03-17T06:05:33;95728.28;;;12.81;52.70
64668;BME280;51077;42.716;23.344;2024-03-17T06:08:00;95727.38;;;12.98;52.26
64668;BME280;51077;42.716;23.344;2024-03-17T06:10:27;95730.16;;;13.17;51.71
64668;BME280;51077;42.716;23.344;2024-03-17T06:12:52;95730.97;;;13.36;51.13
64668;BME280;51077;42.716;23.344;2024-03-17T06:15:18;95730.28;;;13.54;50.62
64668;BME280;51077;42.716;23.344;2024-03-17T06:17:45;95737.28;;;13.74;50.27
64668;BME280;51077;42.716;23.344;2024-03-17T06:20:11;95738.78;;;13.94;49.56
64668;BME280;51077;42.716;23.344;2024-03-17T06:22:38;95733.16;;;14.19;48.96
64668;BME280;51077;42.716;23.344;2024-03-17T06:25:04;95737.28;;;14.44;48.81
64668;BME280;51077;42.716;23.344;2024-03-17T06:27:30;95737.50;;;14.65;47.90
64668;BME280;51077;42.716;23.344;2024-03-17T06:29:56;95743.16;;;14.86;47.49
64668;BME280;51077;42.716;23.344;2024-03-17T06:32:21;95738.84;;;15.04;47.11
64668;BME280;51077;42.716;23.344;2024-03-17T06:34:47;95745.84;;;15.18;46.43
64668;BME280;51077;42.716;23.344;2024-03-17T06:37:12;95747.78;;;15.37;46.53
64668;BME280;51077;42.716;23.344;2024-03-17T06:39:38;95744.69;;;15.53;45.84
64668;BME280;51077;42.716;23.344;2024-03-17T06:42:04;95748.53;;;15.77;45.27
64668;BME280;51077;42.716;23.344;2024-03-17T06:44:30;95756.78;;;16.03;44.77
64668;BME280;51077;42.716;23.344;2024-03-17T06:46:57;95753.94;;;16.30;44.36
64668;BME280;51077;42.716;23.344;2024-03-17T06:49:23;95750.44;;;16.50;44.20
64668;BME280;51077;42.716;23.344;2024-03-17T06:51:49;95751.53;;;16.68;43.70
64668;BME280;51077;42.716;23.344;2024-03-17T06:54:14;95755.19;;;16.84;43.38
64668;BME280;51077;42.716;23.344;2024-03-17T06:56:40;95751.47;;;17.02;43.08
64668;BME280;51077;42.716;23.344;2024-03-17T06:59:05;95748.63;;;17.23;42.51
64668;BME280;51077;42.716;23.344;2024-03-17T07:01:31;95745.47;;;17.48;42.15
64668;BME280;51077;42.716;23.344;2024-03-17T07:03:56;95752.03;;;17.66;41.76
64668;BME280;51077;42.716;23.344;2024-03-17T07:06:21;95754.53;;;17.77;41.76
64668;BME280;51077;42.716;23.344;2024-03-17T07:08:47;95754.84;;;17.73;41.48
64668;BME280;51077;42.716;23.344;2024-03-17T07:11:12;95753.16;;;17.70;41.46
64668;BME280;51077;42.716;23.344;2024-03-17T07:13:38;95752.25;;;17.68;41.66
64668;BME280;51077;42.716;23.344;2024-03-17T07:16:07;95752.03;;;17.66;41.65
64668;BME280;51077;42.716;23.344;2024-03-17T07:18:33;95746.81;;;17.62;41.69
64668;BME280;51077;42.716;23.344;2024-03-17T07:21:01;95749.41;;;17.60;41.49
64668;BME280;51077;42.716;23.344;2024-03-17T07:23:29;95751.81;;;17.56;41.52
64668;BME280;51077;42.716;23.344;2024-03-17T07:25:56;95750.66;;;17.51;41.54
64668;BME280;51077;42.716;23.344;2024-03-17T07:28:22;95752.69;;;17.51;42.14
64668;BME280;51077;42.716;23.344;2024-03-17T07:30:53;95757.31;;;17.48;43.85
64668;BME280;51077;42.716;23.344;2024-03-17T07:33:19;95755.44;;;17.43;43.97
64668;BME280;51077;42.716;23.344;2024-03-17T07:35:48;95758.53;;;17.40;43.43
64668;BME280;51077;42.716;23.344;2024-03-17T07:38:14;95763.53;;;17.41;46.14
64668;BME280;51077;42.716;23.344;2024-03-17T07:40:40;95764.00;;;17.53;49.22
64668;BME280;51077;42.716;23.344;2024-03-17T07:43:06;95761.81;;;17.59;49.22
64668;BME280;51077;42.716;23.344;2024-03-17T07:45:31;95756.78;;;17.57;48.56
64668;BME280;51077;42.716;23.344;2024-03-17T07:47:56;95759.72;;;17.52;48.41
64668;BME280;51077;42.716;23.344;2024-03-17T07:50:22;95761.38;;;17.47;48.98
64668;BME280;51077;42.716;23.344;2024-03-17T07:52:47;95760.25;;;17.43;48.89
64668;BME280;51077;42.716;23.344;2024-03-17T07:55:13;95761.88;;;17.38;48.82
64668;BME280;51077;42.716;23.344;2024-03-17T07:57:38;95754.63;;;17.35;49.32
64668;BME280;51077;42.716;23.344;2024-03-17T08:00:05;95760.75;;;17.33;50.20
64668;BME280;51077;42.716;23.344;2024-03-17T08:02:35;95749.97;;;17.30;50.58
64668;BME280;51077;42.716;23.344;2024-03-17T08:05:01;95750.53;;;17.28;50.83
64668;BME280;51077;42.716;23.344;2024-03-17T08:07:26;95757.00;;;17.31;51.00
64668;BME280;51077;42.716;23.344;2024-03-17T08:09:52;95749.44;;;17.31;51.38
64668;BME280;51077;42.716;23.344;2024-03-17T08:12:17;95752.41;;;17.33;51.11
64668;BME280;51077;42.716;23.344;2024-03-17T08:14:43;95748.00;;;17.38;51.56
64668;BME280;51077;42.716;23.344;2024-03-17T08:17:08;95749.13;;;17.43;51.72
64668;BME280;51077;42.716;23.344;2024-03-17T08:19:35;95751.56;;;17.46;51.98
64668;BME280;51077;42.716;23.344;2024-03-17T08:22:00;95743.81;;;17.52;51.86
64668;BME280;51077;42.716;23.344;2024-03-17T08:24:25;95742.91;;;17.57;52.16
64668;BME280;51077;42.716;23.344;2024-03-17T08:26:51;95739.44;;;17.65;51.97
64668;BME280;51077;42.716;23.344;2024-03-17T08:29:16;95741.91;;;17.76;51.80
64668;BME280;51077;42.716;23.344;2024-03-17T08:31:42;95744.94;;;17.93;52.33
64668;BME280;51077;42.716;23.344;2024-03-17T08:34:10;95734.69;;;18.17;51.38
64668;BME280;51077;42.716;23.344;2024-03-17T08:36:35;95744.34;;;18.31;51.17
64668;BME280;51077;42.716;23.344;2024-03-17T08:39:01;95731.75;;;18.45;51.25
64668;BME280;51077;42.716;23.344;2024-03-17T08:41:26;95739.03;;;18.64;51.02
64668;BME280;51077;42.716;23.344;2024-03-17T08:43:52;95723.69;;;18.86;50.48
64668;BME280;51077;42.716;23.344;2024-03-17T08:46:18;95725.13;;;19.09;50.15
64668;BME280;51077;42.716;23.344;2024-03-17T08:48:43;95722.81;;;19.54;49.56
64668;BME280;51077;42.716;23.344;2024-03-17T08:51:09;95720.88;;;19.95;48.76
64668;BME280;51077;42.716;23.344;2024-03-17T08:53:36;95720.59;;;20.41;48.52
64668;BME280;51077;42.716;23.344;2024-03-17T08:56:04;95716.47;;;20.82;48.50
64668;BME280;51077;42.716;23.344;2024-03-17T08:58:31;95707.81;;;21.13;49.00
64668;BME280;51077;42.716;23.344;2024-03-17T09:00:57;95714.78;;;21.46;48.83
64668;BME280;51077;42.716;23.344;2024-03-17T09:03:22;95708.59;;;21.82;48.12
64668;BME280;51077;42.716;23.344;2024-03-17T09:05:48;95706.97;;;22.24;46.90
64668;BME280;51077;42.716;23.344;2024-03-17T09:08:19;95702.47;;;22.65;46.28
64668;BME280;51077;42.716;23.344;2024-03-17T09:10:46;95707.50;;;23.03;47.11
64668;BME280;51077;42.716;23.344;2024-03-17T09:18:31;95687.72;;;24.27;44.44
64668;BME280;51077;42.716;23.344;2024-03-17T09:23:26;95678.38;;;24.85;44.41
64668;BME280;51077;42.716;23.344;2024-03-17T09:26:04;95680.03;;;25.10;42.68
64668;BME280;51077;42.716;23.344;2024-03-17T09:28:31;95680.31;;;25.35;42.41
64668;BME280;51077;42.716;23.344;2024-03-17T09:30:58;95681.25;;;25.28;41.66
64668;BME280;51077;42.716;23.344;2024-03-17T09:33:25;95678.38;;;25.16;39.82
64668;BME280;51077;42.716;23.344;2024-03-17T09:38:20;95662.28;;;25.17;41.01
64668;BME280;51077;42.716;23.344;2024-03-17T09:40:47;95663.84;;;25.41;41.94
64668;BME280;51077;42.716;23.344;2024-03-17T09:43:21;95658.22;;;25.63;41.24
64668;BME280;51077;42.716;23.344;2024-03-17T09:45:47;95661.75;;;25.63;41.92
64668;BME280;51077;42.716;23.344;2024-03-17T09:48:14;95660.19;;;25.60;41.12
64668;BME280;51077;42.716;23.344;2024-03-17T09:50:52;95669.06;;;25.56;40.58
64668;BME280;51077;42.716;23.344;2024-03-17T09:53:23;95662.03;;;25.46;40.04
64668;BME280;51077;42.716;23.344;2024-03-17T09:55:49;95663.59;;;25.37;39.92
64668;BME280;51077;42.716;23.344;2024-03-17T09:58:16;95656.31;;;25.22;39.45
64668;BME280;51077;42.716;23.344;2024-03-17T10:00:45;95663.00;;;25.07;40.46
64668;BME280;51077;42.716;23.344;2024-03-17T10:03:12;95667.56;;;24.91;41.00
64668;BME280;51077;42.716;23.344;2024-03-17T10:05:38;95662.47;;;24.78;41.75
64668;BME280;51077;42.716;23.344;2024-03-17T10:08:03;95664.09;;;24.71;41.46
64668;BME280;51077;42.716;23.344;2024-03-17T10:10:29;95671.06;;;24.70;41.29
64668;BME280;51077;42.716;23.344;2024-03-17T10:12:55;95664.72;;;24.70;41.45
64668;BME280;51077;42.716;23.344;2024-03-17T10:15:20;95658.94;;;24.68;41.49
64668;BME280;51077;42.716;23.344;2024-03-17T10:17:46;95659.84;;;24.70;41.36
64668;BME280;51077;42.716;23.344;2024-03-17T10:20:17;95662.47;;;24.78;40.93
64668;BME280;51077;42.716;23.344;2024-03-17T10:25:33;95656.97;;;25.11;41.20
64668;BME280;51077;42.716;23.344;2024-03-17T10:27:59;95660.72;;;25.25;42.34
64668;BME280;51077;42.716;23.344;2024-03-17T10:30:26;95662.47;;;25.30;42.39
64668;BME280;51077;42.716;23.344;2024-03-17T10:35:27;95662.47;;;25.30;40.41
64668;BME280;51077;42.716;23.344;2024-03-17T10:37:54;95658.97;;;25.20;39.92
64668;BME280;51077;42.716;23.344;2024-03-17T10:40:20;95653.31;;;24.99;38.99
64668;BME280;51077;42.716;23.344;2024-03-17T10:42:46;95657.59;;;24.78;39.01
64668;BME280;51077;42.716;23.344;2024-03-17T10:45:13;95650.88;;;24.62;40.04
64668;BME280;51077;42.716;23.344;2024-03-17T10:47:43;95658.03;;;24.44;40.45
64668;BME280;51077;42.716;23.344;2024-03-17T10:50:17;95651.13;;;24.25;41.42
64668;BME280;51077;42.716;23.344;2024-03-17T10:52:44;95652.19;;;24.11;41.40
64668;BME280;51077;42.716;23.344;2024-03-17T10:55:26;95649.13;;;23.97;41.64
64668;BME280;51077;42.716;23.344;2024-03-17T10:57:54;95649.72;;;23.86;41.99
64668;BME280;51077;42.716;23.344;2024-03-17T11:00:23;95644.59;;;23.72;41.98
64668;BME280;51077;42.716;23.344;2024-03-17T11:02:53;95646.50;;;23.60;41.72
64668;BME280;51077;42.716;23.344;2024-03-17T11:05:28;95639.28;;;23.47;42.12
64668;BME280;51077;42.716;23.344;2024-03-17T11:08:00;95631.63;;;23.38;41.70
64668;BME280;51077;42.716;23.344;2024-03-17T11:10:29;95636.94;;;23.34;41.74
64668;BME280;51077;42.716;23.344;2024-03-17T11:12:56;95629.53;;;23.29;40.50
64668;BME280;51077;42.716;23.344;2024-03-17T11:20:33;95630.44;;;23.12;41.98
64668;BME280;51077;42.716;23.344;2024-03-17T11:22:59;95629.97;;;23.16;41.77
64668;BME280;51077;42.716;23.344;2024-03-17T11:27:57;95620.69;;;23.62;40.70
64668;BME280;51077;42.716;23.344;2024-03-17T11:38:56;95600.75;;;24.37;37.39
64668;BME280;51077;42.716;23.344;2024-03-17T11:46:59;95592.31;;;23.96;34.68
64668;BME280;51077;42.716;23.344;2024-03-17T11:52:04;95587.81;;;23.81;35.39
64668;BME280;51077;42.716;23.344;2024-03-17T11:54:30;95594.84;;;23.92;35.31
64668;BME280;51077;42.716;23.344;2024-03-17T11:57:04;95589.63;;;24.08;35.59
64668;BME280;51077;42.716;23.344;2024-03-17T11:59:30;95590.66;;;24.03;35.30
64668;BME280;51077;42.716;23.344;2024-03-17T12:01:56;95587.19;;;24.24;35.19
64668;BME280;51077;42.716;23.344;2024-03-17T12:04:24;95586.56;;;24.35;35.63
64668;BME280;51077;42.716;23.344;2024-03-17T12:06:55;95588.34;;;24.40;35.10
64668;BME280;51077;42.716;23.344;2024-03-17T12:12:08;95597.00;;;24.54;34.69
64668;BME280;51077;42.716;23.344;2024-03-17T12:14:35;95594.16;;;25.06;34.56
64668;BME280;51077;42.716;23.344;2024-03-17T12:17:06;95593.78;;;25.22;34.71
64668;BME280;51077;42.716;23.344;2024-03-17T12:19:32;95584.69;;;25.45;34.21
64668;BME280;51077;42.716;23.344;2024-03-17T12:21:59;95587.78;;;25.49;34.46
64668;BME280;51077;42.716;23.344;2024-03-17T12:24:29;95594.13;;;25.49;33.81
64668;BME280;51077;42.716;23.344;2024-03-17T12:26:57;95587.03;;;25.48;33.35
64668;BME280;51077;42.716;23.344;2024-03-17T12:29:29;95587.00;;;25.37;32.67
64668;BME280;51077;42.716;23.344;2024-03-17T12:32:00;95590.50;;;25.25;32.22
64668;BME280;51077;42.716;23.344;2024-03-17T12:34:32;95587.72;;;25.37;31.73
64668;BME280;51077;42.716;23.344;2024-03-17T12:37:00;95588.44;;;25.38;32.30
64668;BME280;51077;42.716;23.344;2024-03-17T12:39:29;95585.06;;;25.39;31.89
64668;BME280;51077;42.716;23.344;2024-03-17T12:42:13;95574.56;;;25.40;32.41
64668;BME280;51077;42.716;23.344;2024-03-17T12:44:53;95583.19;;;25.32;32.47
64668;BME280;51077;42.716;23.344;2024-03-17T12:47:26;95583.75;;;25.19;32.03
64668;BME280;51077;42.716;23.344;2024-03-17T12:49:57;95579.56;;;24.98;32.35
64668;BME280;51077;42.716;23.344;2024-03-17T12:52:27;95579.72;;;24.79;33.01
64668;BME280;51077;42.716;23.344;2024-03-17T12:57:51;95579.59;;;24.46;33.90
64668;BME280;51077;42.716;23.344;2024-03-17T13:00:35;95577.72;;;24.29;33.89
64668;BME280;51077;42.716;23.344;2024-03-17T13:03:05;95581.50;;;24.12;34.08
64668;BME280;51077;42.716;23.344;2024-03-17T13:05:35;95574.63;;;23.94;35.16
64668;BME280;51077;42.716;23.344;2024-03-17T13:08:02;95573.66;;;23.70;35.29
64668;BME280;51077;42.716;23.344;2024-03-17T13:10:29;95563.22;;;23.51;35.40
64668;BME280;51077;42.716;23.344;2024-03-17T13:13:03;95569.72;;;23.34;35.79
64668;BME280;51077;42.716;23.344;2024-03-17T13:15:30;95567.19;;;23.19;35.87
64668;BME280;51077;42.716;23.344;2024-03-17T13:17:56;95566.63;;;23.01;36.13
64668;BME280;51077;42.716;23.344;2024-03-17T13:20:22;95569.09;;;22.87;36.28
64668;BME280;51077;42.716;23.344;2024-03-17T13:22:48;95563.91;;;22.74;36.81
64668;BME280;51077;42.716;23.344;2024-03-17T13:25:15;95564.34;;;22.61;36.77
64668;BME280;51077;42.716;23.344;2024-03-17T13:27:44;95564.75;;;22.47;36.88
64668;BME280;51077;42.716;23.344;2024-03-17T13:30:11;95570.00;;;22.33;37.28
64668;BME280;51077;42.716;23.344;2024-03-17T13:32:37;95564.97;;;22.22;37.45
64668;BME280;51077;42.716;23.344;2024-03-17T13:35:03;95571.66;;;22.09;37.64
64668;BME280;51077;42.716;23.344;2024-03-17T13:37:28;95566.44;;;21.96;38.11